createdAt,value
2023-05-20T00:00:17.128Z,984.78
2023-05-20T00:12:17.610Z,984.58
2023-05-20T00:24:18.106Z,984.06
2023-05-20T00:36:18.496Z,984.01
2023-05-20T00:48:19.322Z,984.15
2023-05-20T01:00:19.396Z,983.84
2023-05-20T01:12:19.858Z,983.89
2023-05-20T01:24:20.315Z,983.62
2023-05-20T01:36:20.774Z,983.47
2023-05-20T01:48:21.227Z,983.40
2023-05-20T02:00:21.673Z,983.87
2023-05-20T02:12:22.122Z,983.98
2023-05-20T02:24:22.595Z,983.80
2023-05-20T02:36:23.071Z,983.54
2023-05-20T02:48:23.487Z,983.56
2023-05-20T03:00:23.946Z,983.64
2023-05-20T03:12:24.555Z,983.82
2023-05-20T03:24:24.834Z,984.19
2023-05-20T03:36:25.312Z,984.25
2023-05-20T03:48:25.781Z,984.19
2023-05-20T04:00:26.207Z,984.33
2023-05-20T04:12:26.632Z,983.97
2023-05-20T04:24:27.120Z,983.90
2023-05-20T04:36:27.551Z,984.22
2023-05-20T04:48:28.037Z,984.19
2023-05-20T05:00:28.466Z,984.19
2023-05-20T05:12:28.921Z,984.11
2023-05-20T05:24:29.386Z,983.98
2023-05-20T05:36:29.819Z,983.71
2023-05-20T05:48:30.260Z,983.75
2023-05-20T06:00:30.740Z,983.62
2023-05-20T06:12:31.198Z,983.49
2023-05-20T06:24:31.666Z,983.38
2023-05-20T06:36:33.691Z,983.23
2023-05-20T06:48:32.571Z,983.14
2023-05-20T07:00:33.017Z,983.01
2023-05-20T07:12:36.091Z,982.87
2023-05-20T07:24:33.914Z,982.78
2023-05-20T07:36:34.372Z,982.78
2023-05-20T07:48:34.812Z,982.75
2023-05-20T08:00:35.280Z,982.59
2023-05-20T08:12:35.719Z,982.53
2023-05-20T08:24:36.183Z,982.44
2023-05-20T08:36:36.650Z,982.25
2023-05-20T08:48:37.129Z,982.19
2023-05-20T09:00:37.571Z,982.14
2023-05-20T09:12:38.005Z,982.18
2023-05-20T09:24:38.484Z,982.13
2023-05-20T09:36:38.930Z,982.08
2023-05-20T09:48:39.355Z,981.99
2023-05-20T10:00:39.854Z,981.74
2023-05-20T10:12:40.264Z,981.85
2023-05-20T10:24:40.874Z,981.83
2023-05-20T10:36:42.803Z,981.80
2023-05-20T10:48:41.736Z,981.82
2023-05-20T11:00:42.140Z,981.94
2023-05-20T11:12:42.618Z,981.75
2023-05-20T11:24:43.133Z,981.73
2023-05-20T11:36:43.497Z,981.49
2023-05-20T11:48:43.912Z,981.42
2023-05-20T12:00:51.703Z,981.39
2023-05-20T12:12:44.862Z,981.26
2023-05-20T12:24:45.317Z,981.25
2023-05-20T12:36:45.723Z,981.10
2023-05-20T12:48:46.184Z,981.01
2023-05-20T13:00:46.680Z,981.04
2023-05-20T13:12:47.111Z,980.85
2023-05-20T13:24:47.552Z,980.72
2023-05-20T13:36:48.040Z,980.63
2023-05-20T13:48:48.479Z,980.42
2023-05-20T14:00:48.955Z,980.34
2023-05-20T14:12:49.386Z,980.18
2023-05-20T14:24:49.839Z,980.37
2023-05-20T14:36:50.332Z,980.19
2023-05-20T14:48:50.767Z,980.05
2023-05-20T15:00:51.287Z,979.91
2023-05-20T15:12:51.661Z,979.90
2023-05-20T15:24:52.132Z,979.68
2023-05-20T15:48:53.059Z,979.63
2023-05-20T16:00:53.555Z,979.49
2023-05-20T16:12:53.952Z,979.44
2023-05-20T16:24:54.434Z,979.48
2023-05-20T16:36:54.899Z,979.65
2023-05-20T16:48:55.338Z,979.61
2023-05-20T17:00:55.822Z,979.60
2023-05-20T17:12:56.286Z,979.63
2023-05-20T17:24:56.745Z,979.67
2023-05-20T17:36:57.193Z,979.80
2023-05-20T17:48:57.573Z,979.86
2023-05-20T18:00:58.092Z,979.88
2023-05-20T18:12:58.522Z,980.00
2023-05-20T18:24:58.967Z,980.17
2023-05-20T18:36:59.457Z,980.25
2023-05-20T18:48:59.897Z,980.19
2023-05-20T19:01:00.361Z,980.33
2023-05-20T19:13:00.787Z,980.52
2023-05-20T19:25:01.253Z,980.65
2023-05-20T19:37:01.739Z,980.54
2023-05-20T19:49:02.177Z,980.68
2023-05-20T20:01:02.610Z,980.66
2023-05-20T20:13:03.064Z,980.73
2023-05-20T20:25:03.552Z,980.87
2023-05-20T20:37:03.988Z,980.85
2023-05-20T20:49:04.445Z,980.72
2023-05-20T21:01:04.919Z,980.76
2023-05-20T21:13:05.366Z,980.81
2023-05-20T21:25:05.781Z,980.92
2023-05-20T21:37:06.242Z,980.76
2023-05-20T21:49:06.692Z,980.95
2023-05-20T22:01:07.235Z,980.71
2023-05-20T22:13:07.604Z,980.78
2023-05-20T22:25:08.104Z,980.87
2023-05-20T22:37:08.545Z,980.76
2023-05-20T22:49:08.962Z,980.74
2023-05-20T23:01:09.461Z,980.67
2023-05-20T23:13:09.878Z,980.61
2023-05-20T23:25:10.381Z,980.42
2023-05-20T23:37:10.826Z,980.30
2023-05-20T23:49:11.223Z,980.27
